sensor_id;sensor_type;location;lat;lon;timestamp;P1;durP1;ratioP1;P2;durP2;ratioP2
17595;SDS011;8916;47.086;15.920;2022-12-18T00:02:11;38.22;;;22.05;;
17595;SDS011;8916;47.086;15.920;2022-12-18T00:04:42;40.63;;;21.63;;
17595;SDS011;8916;47.086;15.920;2022-12-18T00:07:11;38.22;;;20.77;;
17595;SDS011;8916;47.086;15.920;2022-12-18T00:09:40;38.40;;;20.10;;
17595;SDS011;8916;47.086;15.920;2022-12-18T00:12:09;32.65;;;17.83;;
17595;SDS011;8916;47.086;15.920;2022-12-18T00:14:44;33.38;;;18.90;;
17595;SDS011;8916;47.086;15.920;2022-12-18T00:17:15;34.05;;;19.88;;
17595;SDS011;8916;47.086;15.920;2022-12-18T00:19:44;32.88;;;19.15;;
17595;SDS011;8916;47.086;15.920;2022-12-18T00:22:13;35.70;;;18.88;;
17595;SDS011;8916;47.086;15.920;2022-12-18T00:24:42;35.00;;;18.15;;
17595;SDS011;8916;47.086;15.920;2022-12-18T00:27:11;34.40;;;19.30;;
17595;SDS011;8916;47.086;15.920;2022-12-18T00:29:40;36.53;;;19.83;;
17595;SDS011;8916;47.086;15.920;2022-12-18T00:32:09;35.47;;;20.38;;
17595;SDS011;8916;47.086;15.920;2022-12-18T00:34:40;32.42;;;18.33;;
17595;SDS011;8916;47.086;15.920;2022-12-18T00:37:09;34.63;;;19.55;;
17595;SDS011;8916;47.086;15.920;2022-12-18T00:39:47;30.55;;;17.17;;
17595;SDS011;8916;47.086;15.920;2022-12-18T00:42:18;30.65;;;17.25;;
17595;SDS011;8916;47.086;15.920;2022-12-18T00:45:08;30.27;;;16.73;;
17595;SDS011;8916;47.086;15.920;2022-12-18T00:47:39;27.40;;;15.05;;
17595;SDS011;8916;47.086;15.920;2022-12-18T00:50:10;27.15;;;15.20;;
17595;SDS011;8916;47.086;15.920;2022-12-18T00:52:41;27.25;;;15.38;;
17595;SDS011;8916;47.086;15.920;2022-12-18T00:55:10;23.10;;;14.48;;
17595;SDS011;8916;47.086;15.920;2022-12-18T00:57:40;22.33;;;13.25;;
17595;SDS011;8916;47.086;15.920;2022-12-18T01:00:10;25.08;;;12.73;;
17595;SDS011;8916;47.086;15.920;2022-12-18T01:02:42;21.50;;;11.98;;
17595;SDS011;8916;47.086;15.920;2022-12-18T01:05:13;21.90;;;12.55;;
17595;SDS011;8916;47.086;15.920;2022-12-18T01:07:42;22.98;;;12.50;;
17595;SDS011;8916;47.086;15.920;2022-12-18T01:10:12;23.67;;;12.30;;
17595;SDS011;8916;47.086;15.920;2022-12-18T01:12:41;23.40;;;12.68;;
17595;SDS011;8916;47.086;15.920;2022-12-18T01:15:10;22.23;;;12.38;;
17595;SDS011;8916;47.086;15.920;2022-12-18T01:17:42;27.27;;;15.43;;
17595;SDS011;8916;47.086;15.920;2022-12-18T01:20:13;28.33;;;15.50;;
17595;SDS011;8916;47.086;15.920;2022-12-18T01:22:43;24.90;;;14.23;;
17595;SDS011;8916;47.086;15.920;2022-12-18T01:25:12;25.90;;;14.32;;
17595;SDS011;8916;47.086;15.920;2022-12-18T01:27:41;29.13;;;15.38;;
17595;SDS011;8916;47.086;15.920;2022-12-18T01:30:10;28.23;;;15.73;;
17595;SDS011;8916;47.086;15.920;2022-12-18T01:32:40;25.65;;;14.60;;
17595;SDS011;8916;47.086;15.920;2022-12-18T01:35:09;26.92;;;14.52;;
17595;SDS011;8916;47.086;15.920;2022-12-18T01:37:39;29.95;;;16.60;;
17595;SDS011;8916;47.086;15.920;2022-12-18T01:40:09;27.65;;;16.10;;
17595;SDS011;8916;47.086;15.920;2022-12-18T01:42:39;31.67;;;17.98;;
17595;SDS011;8916;47.086;15.920;2022-12-18T01:45:22;28.13;;;15.93;;
17595;SDS011;8916;47.086;15.920;2022-12-18T01:47:55;32.15;;;17.45;;
17595;SDS011;8916;47.086;15.920;2022-12-18T01:50:28;23.67;;;14.60;;
17595;SDS011;8916;47.086;15.920;2022-12-18T01:53:03;23.50;;;13.65;;
17595;SDS011;8916;47.086;15.920;2022-12-18T01:55:39;24.52;;;13.32;;
17595;SDS011;8916;47.086;15.920;2022-12-18T01:58:10;19.73;;;11.82;;
17595;SDS011;8916;47.086;15.920;2022-12-18T02:00:39;21.88;;;11.98;;
17595;SDS011;8916;47.086;15.920;2022-12-18T02:03:11;24.20;;;12.38;;
17595;SDS011;8916;47.086;15.920;2022-12-18T02:05:44;22.88;;;12.90;;
17595;SDS011;8916;47.086;15.920;2022-12-18T02:08:20;34.28;;;18.23;;
17595;SDS011;8916;47.086;15.920;2022-12-18T02:10:54;23.48;;;14.38;;
17595;SDS011;8916;47.086;15.920;2022-12-18T02:13:36;23.13;;;11.85;;
17595;SDS011;8916;47.086;15.920;2022-12-18T02:16:16;22.88;;;13.23;;
17595;SDS011;8916;47.086;15.920;2022-12-18T02:18:53;20.42;;;11.95;;
17595;SDS011;8916;47.086;15.920;2022-12-18T02:21:30;23.45;;;11.75;;
17595;SDS011;8916;47.086;15.920;2022-12-18T02:24:14;23.45;;;12.18;;
17595;SDS011;8916;47.086;15.920;2022-12-18T02:26:58;23.70;;;11.00;;
17595;SDS011;8916;47.086;15.920;2022-12-18T02:29:32;20.05;;;11.10;;
17595;SDS011;8916;47.086;15.920;2022-12-18T02:32:09;22.42;;;11.77;;
17595;SDS011;8916;47.086;15.920;2022-12-18T02:34:44;21.77;;;11.52;;
17595;SDS011;8916;47.086;15.920;2022-12-18T02:37:18;18.58;;;10.88;;
17595;SDS011;8916;47.086;15.920;2022-12-18T02:39:49;20.70;;;11.40;;
17595;SDS011;8916;47.086;15.920;2022-12-18T02:42:25;20.15;;;11.15;;
17595;SDS011;8916;47.086;15.920;2022-12-18T02:44:56;19.27;;;11.40;;
17595;SDS011;8916;47.086;15.920;2022-12-18T02:47:27;19.13;;;11.20;;
17595;SDS011;8916;47.086;15.920;2022-12-18T02:50:07;18.27;;;10.38;;
17595;SDS011;8916;47.086;15.920;2022-12-18T02:52:49;19.60;;;11.57;;
17595;SDS011;8916;47.086;15.920;2022-12-18T02:55:31;21.40;;;11.63;;
17595;SDS011;8916;47.086;15.920;2022-12-18T02:58:19;21.95;;;12.63;;
17595;SDS011;8916;47.086;15.920;2022-12-18T03:01:03;19.83;;;11.10;;
17595;SDS011;8916;47.086;15.920;2022-12-18T03:03:39;18.40;;;10.80;;
17595;SDS011;8916;47.086;15.920;2022-12-18T03:06:17;21.25;;;10.80;;
17595;SDS011;8916;47.086;15.920;2022-12-18T03:08:56;20.15;;;11.35;;
17595;SDS011;8916;47.086;15.920;2022-12-18T03:11:30;23.60;;;12.50;;
17595;SDS011;8916;47.086;15.920;2022-12-18T03:14:22;21.88;;;11.57;;
17595;SDS011;8916;47.086;15.920;2022-12-18T03:16:56;20.55;;;11.60;;
17595;SDS011;8916;47.086;15.920;2022-12-18T03:19:32;21.63;;;11.95;;
17595;SDS011;8916;47.086;15.920;2022-12-18T03:22:03;20.88;;;12.00;;
17595;SDS011;8916;47.086;15.920;2022-12-18T03:24:44;20.23;;;10.95;;
17595;SDS011;8916;47.086;15.920;2022-12-18T03:27:15;21.25;;;10.70;;
17595;SDS011;8916;47.086;15.920;2022-12-18T03:29:51;22.55;;;11.38;;
17595;SDS011;8916;47.086;15.920;2022-12-18T03:32:38;19.50;;;11.75;;
17595;SDS011;8916;47.086;15.920;2022-12-18T03:35:13;18.77;;;10.67;;
17595;SDS011;8916;47.086;15.920;2022-12-18T03:37:47;21.35;;;11.98;;
17595;SDS011;8916;47.086;15.920;2022-12-18T03:40:17;21.35;;;11.18;;
17595;SDS011;8916;47.086;15.920;2022-12-18T03:42:52;22.63;;;12.10;;
17595;SDS011;8916;47.086;15.920;2022-12-18T03:45:32;21.02;;;11.63;;
17595;SDS011;8916;47.086;15.920;2022-12-18T03:48:07;18.83;;;10.63;;
17595;SDS011;8916;47.086;15.920;2022-12-18T03:50:45;21.02;;;11.10;;
17595;SDS011;8916;47.086;15.920;2022-12-18T03:53:23;23.02;;;12.90;;
17595;SDS011;8916;47.086;15.920;2022-12-18T03:56:00;19.48;;;10.18;;
17595;SDS011;8916;47.086;15.920;2022-12-18T03:58:37;18.42;;;10.15;;
17595;SDS011;8916;47.086;15.920;2022-12-18T04:01:20;16.80;;;9.38;;
17595;SDS011;8916;47.086;15.920;2022-12-18T04:06:25;21.70;;;12.02;;
17595;SDS011;8916;47.086;15.920;2022-12-18T04:08:56;22.70;;;11.35;;
17595;SDS011;8916;47.086;15.920;2022-12-18T04:11:28;19.45;;;10.07;;
17595;SDS011;8916;47.086;15.920;2022-12-18T04:13:58;19.30;;;9.68;;
17595;SDS011;8916;47.086;15.920;2022-12-18T04:16:34;20.73;;;11.35;;
17595;SDS011;8916;47.086;15.920;2022-12-18T04:19:05;24.60;;;12.27;;
17595;SDS011;8916;47.086;15.920;2022-12-18T04:21:39;21.25;;;12.57;;
17595;SDS011;8916;47.086;15.920;2022-12-18T04:24:10;21.73;;;12.77;;
17595;SDS011;8916;47.086;15.920;2022-12-18T04:26:45;20.60;;;11.43;;
17595;SDS011;8916;47.086;15.920;2022-12-18T04:29:22;20.90;;;10.75;;
17595;SDS011;8916;47.086;15.920;2022-12-18T04:31:53;20.45;;;11.10;;
17595;SDS011;8916;47.086;15.920;2022-12-18T04:34:24;22.90;;;11.13;;
17595;SDS011;8916;47.086;15.920;2022-12-18T04:36:54;20.73;;;10.77;;
17595;SDS011;8916;47.086;15.920;2022-12-18T04:39:25;18.80;;;10.23;;
17595;SDS011;8916;47.086;15.920;2022-12-18T04:41:59;19.52;;;10.82;;
17595;SDS011;8916;47.086;15.920;2022-12-18T04:44:28;20.75;;;12.18;;
17595;SDS011;8916;47.086;15.920;2022-12-18T04:46:58;26.15;;;13.23;;
17595;SDS011;8916;47.086;15.920;2022-12-18T04:49:27;23.60;;;12.60;;
17595;SDS011;8916;47.086;15.920;2022-12-18T04:51:56;22.60;;;11.77;;
17595;SDS011;8916;47.086;15.920;2022-12-18T04:54:25;24.98;;;14.30;;
17595;SDS011;8916;47.086;15.920;2022-12-18T04:56:55;23.25;;;12.98;;
17595;SDS011;8916;47.086;15.920;2022-12-18T04:59:24;21.85;;;11.82;;
17595;SDS011;8916;47.086;15.920;2022-12-18T05:01:53;28.30;;;14.18;;
17595;SDS011;8916;47.086;15.920;2022-12-18T05:04:24;24.70;;;13.30;;
17595;SDS011;8916;47.086;15.920;2022-12-18T05:06:53;21.92;;;12.52;;
17595;SDS011;8916;47.086;15.920;2022-12-18T05:09:22;24.13;;;12.40;;
17595;SDS011;8916;47.086;15.920;2022-12-18T05:11:51;25.60;;;13.48;;
17595;SDS011;8916;47.086;15.920;2022-12-18T05:14:20;22.95;;;13.02;;
17595;SDS011;8916;47.086;15.920;2022-12-18T05:16:50;22.50;;;12.43;;
17595;SDS011;8916;47.086;15.920;2022-12-18T05:19:26;26.88;;;13.00;;
17595;SDS011;8916;47.086;15.920;2022-12-18T05:21:55;25.23;;;12.45;;
17595;SDS011;8916;47.086;15.920;2022-12-18T05:24:24;24.20;;;12.10;;
17595;SDS011;8916;47.086;15.920;2022-12-18T05:26:53;23.30;;;12.50;;
17595;SDS011;8916;47.086;15.920;2022-12-18T05:29:23;25.45;;;13.85;;
17595;SDS011;8916;47.086;15.920;2022-12-18T05:31:52;21.45;;;11.70;;
17595;SDS011;8916;47.086;15.920;2022-12-18T05:34:21;21.23;;;11.82;;
17595;SDS011;8916;47.086;15.920;2022-12-18T05:36:52;19.70;;;10.57;;
17595;SDS011;8916;47.086;15.920;2022-12-18T05:39:21;20.20;;;11.13;;
17595;SDS011;8916;47.086;15.920;2022-12-18T05:41:50;23.23;;;12.18;;
17595;SDS011;8916;47.086;15.920;2022-12-18T05:44:19;28.70;;;12.93;;
17595;SDS011;8916;47.086;15.920;2022-12-18T05:46:48;25.83;;;13.50;;
17595;SDS011;8916;47.086;15.920;2022-12-18T05:49:17;24.30;;;13.35;;
17595;SDS011;8916;47.086;15.920;2022-12-18T05:51:46;22.02;;;11.98;;
17595;SDS011;8916;47.086;15.920;2022-12-18T05:54:16;21.23;;;11.88;;
17595;SDS011;8916;47.086;15.920;2022-12-18T05:56:45;22.20;;;11.18;;
17595;SDS011;8916;47.086;15.920;2022-12-18T05:59:15;22.17;;;11.45;;
17595;SDS011;8916;47.086;15.920;2022-12-18T06:01:44;20.65;;;12.50;;
17595;SDS011;8916;47.086;15.920;2022-12-18T06:04:13;22.30;;;11.95;;
17595;SDS011;8916;47.086;15.920;2022-12-18T06:06:42;21.95;;;11.82;;
17595;SDS011;8916;47.086;15.920;2022-12-18T06:09:11;25.08;;;13.18;;
17595;SDS011;8916;47.086;15.920;2022-12-18T06:11:42;23.80;;;13.50;;
17595;SDS011;8916;47.086;15.920;2022-12-18T06:14:11;22.42;;;12.48;;
17595;SDS011;8916;47.086;15.920;2022-12-18T06:16:40;25.30;;;13.60;;
17595;SDS011;8916;47.086;15.920;2022-12-18T06:19:12;22.40;;;12.77;;
17595;SDS011;8916;47.086;15.920;2022-12-18T06:21:43;20.90;;;12.30;;
17595;SDS011;8916;47.086;15.920;2022-12-18T06:24:12;20.58;;;11.95;;
17595;SDS011;8916;47.086;15.920;2022-12-18T06:26:43;25.25;;;12.27;;
17595;SDS011;8916;47.086;15.920;2022-12-18T06:29:12;21.23;;;12.43;;
17595;SDS011;8916;47.086;15.920;2022-12-18T06:31:41;24.40;;;12.60;;
17595;SDS011;8916;47.086;15.920;2022-12-18T06:34:10;26.55;;;13.00;;
17595;SDS011;8916;47.086;15.920;2022-12-18T06:36:39;20.70;;;11.85;;
17595;SDS011;8916;47.086;15.920;2022-12-18T06:39:08;23.20;;;12.30;;
17595;SDS011;8916;47.086;15.920;2022-12-18T06:41:37;21.98;;;12.23;;
17595;SDS011;8916;47.086;15.920;2022-12-18T06:44:08;23.80;;;11.98;;
17595;SDS011;8916;47.086;15.920;2022-12-18T06:46:37;22.58;;;11.90;;
17595;SDS011;8916;47.086;15.920;2022-12-18T06:49:07;19.50;;;10.73;;
17595;SDS011;8916;47.086;15.920;2022-12-18T06:51:37;23.70;;;11.30;;
17595;SDS011;8916;47.086;15.920;2022-12-18T06:54:06;20.83;;;11.55;;
17595;SDS011;8916;47.086;15.920;2022-12-18T06:56:35;19.65;;;10.68;;
17595;SDS011;8916;47.086;15.920;2022-12-18T06:59:04;19.80;;;11.75;;
17595;SDS011;8916;47.086;15.920;2022-12-18T07:01:34;20.33;;;11.63;;
17595;SDS011;8916;47.086;15.920;2022-12-18T07:04:03;22.02;;;12.43;;
17595;SDS011;8916;47.086;15.920;2022-12-18T07:06:33;24.95;;;12.35;;
17595;SDS011;8916;47.086;15.920;2022-12-18T07:09:02;22.42;;;11.40;;
17595;SDS011;8916;47.086;15.920;2022-12-18T07:11:32;22.42;;;12.45;;
17595;SDS011;8916;47.086;15.920;2022-12-18T07:14:01;21.45;;;11.45;;
17595;SDS011;8916;47.086;15.920;2022-12-18T07:16:30;22.08;;;11.90;;
17595;SDS011;8916;47.086;15.920;2022-12-18T07:19:01;21.00;;;12.85;;
17595;SDS011;8916;47.086;15.920;2022-12-18T07:21:30;20.55;;;11.98;;
17595;SDS011;8916;47.086;15.920;2022-12-18T07:23:59;21.10;;;12.60;;
17595;SDS011;8916;47.086;15.920;2022-12-18T07:26:28;22.23;;;12.20;;
17595;SDS011;8916;47.086;15.920;2022-12-18T07:28:57;25.00;;;12.35;;
17595;SDS011;8916;47.086;15.920;2022-12-18T07:31:26;22.35;;;13.63;;
17595;SDS011;8916;47.086;15.920;2022-12-18T07:33:56;25.63;;;13.50;;
17595;SDS011;8916;47.086;15.920;2022-12-18T07:36:26;24.73;;;13.02;;
17595;SDS011;8916;47.086;15.920;2022-12-18T07:38:55;25.00;;;14.07;;
17595;SDS011;8916;47.086;15.920;2022-12-18T07:41:24;25.80;;;14.10;;
17595;SDS011;8916;47.086;15.920;2022-12-18T07:43:54;25.85;;;12.75;;
17595;SDS011;8916;47.086;15.920;2022-12-18T07:46:23;25.27;;;13.88;;
17595;SDS011;8916;47.086;15.920;2022-12-18T07:48:52;24.60;;;13.48;;
17595;SDS011;8916;47.086;15.920;2022-12-18T07:51:21;24.27;;;13.02;;
17595;SDS011;8916;47.086;15.920;2022-12-18T07:53:51;24.98;;;12.95;;
17595;SDS011;8916;47.086;15.920;2022-12-18T07:56:20;26.88;;;13.10;;
17595;SDS011;8916;47.086;15.920;2022-12-18T07:58:56;25.95;;;12.23;;
17595;SDS011;8916;47.086;15.920;2022-12-18T08:01:25;27.55;;;12.70;;
17595;SDS011;8916;47.086;15.920;2022-12-18T08:03:55;23.95;;;12.68;;
17595;SDS011;8916;47.086;15.920;2022-12-18T08:06:26;26.25;;;13.40;;
17595;SDS011;8916;47.086;15.920;2022-12-18T08:08:56;22.15;;;12.93;;
17595;SDS011;8916;47.086;15.920;2022-12-18T08:11:26;22.63;;;12.30;;
17595;SDS011;8916;47.086;15.920;2022-12-18T08:13:56;29.58;;;14.05;;
17595;SDS011;8916;47.086;15.920;2022-12-18T08:16:26;25.42;;;13.23;;
17595;SDS011;8916;47.086;15.920;2022-12-18T08:18:55;23.80;;;12.73;;
17595;SDS011;8916;47.086;15.920;2022-12-18T08:21:26;26.00;;;13.65;;
17595;SDS011;8916;47.086;15.920;2022-12-18T08:23:58;24.45;;;13.38;;
17595;SDS011;8916;47.086;15.920;2022-12-18T08:26:30;28.13;;;14.57;;
17595;SDS011;8916;47.086;15.920;2022-12-18T08:28:59;27.42;;;14.45;;
17595;SDS011;8916;47.086;15.920;2022-12-18T08:31:29;30.08;;;14.30;;
17595;SDS011;8916;47.086;15.920;2022-12-18T08:34:00;27.60;;;15.02;;
17595;SDS011;8916;47.086;15.920;2022-12-18T08:36:29;32.58;;;16.50;;
17595;SDS011;8916;47.086;15.920;2022-12-18T08:38:59;29.13;;;16.02;;
17595;SDS011;8916;47.086;15.920;2022-12-18T08:41:28;32.17;;;16.50;;
17595;SDS011;8916;47.086;15.920;2022-12-18T08:43:58;31.75;;;16.30;;
17595;SDS011;8916;47.086;15.920;2022-12-18T08:46:45;35.80;;;16.27;;
17595;SDS011;8916;47.086;15.920;2022-12-18T08:49:14;31.58;;;16.02;;
17595;SDS011;8916;47.086;15.920;2022-12-18T08:51:43;32.25;;;15.70;;
17595;SDS011;8916;47.086;15.920;2022-12-18T08:54:14;36.00;;;17.33;;
17595;SDS011;8916;47.086;15.920;2022-12-18T08:56:43;35.88;;;17.40;;
17595;SDS011;8916;47.086;15.920;2022-12-18T08:59:12;37.47;;;17.88;;
17595;SDS011;8916;47.086;15.920;2022-12-18T09:01:46;36.20;;;18.70;;
17595;SDS011;8916;47.086;15.920;2022-12-18T09:04:16;35.20;;;16.65;;
17595;SDS011;8916;47.086;15.920;2022-12-18T09:06:45;40.50;;;18.67;;
17595;SDS011;8916;47.086;15.920;2022-12-18T09:09:15;40.42;;;19.70;;
17595;SDS011;8916;47.086;15.920;2022-12-18T09:11:45;42.58;;;21.08;;
17595;SDS011;8916;47.086;15.920;2022-12-18T09:14:14;46.40;;;20.95;;
17595;SDS011;8916;47.086;15.920;2022-12-18T09:16:43;49.67;;;21.30;;
17595;SDS011;8916;47.086;15.920;2022-12-18T09:19:12;43.17;;;20.95;;
17595;SDS011;8916;47.086;15.920;2022-12-18T09:21:42;43.83;;;21.70;;
17595;SDS011;8916;47.086;15.920;2022-12-18T09:24:16;53.20;;;24.10;;
17595;SDS011;8916;47.086;15.920;2022-12-18T09:26:46;55.15;;;24.60;;
17595;SDS011;8916;47.086;15.920;2022-12-18T09:29:18;46.50;;;22.10;;
17595;SDS011;8916;47.086;15.920;2022-12-18T09:31:47;49.80;;;23.20;;
17595;SDS011;8916;47.086;15.920;2022-12-18T09:34:17;50.40;;;24.02;;
17595;SDS011;8916;47.086;15.920;2022-12-18T09:36:48;56.35;;;24.95;;
17595;SDS011;8916;47.086;15.920;2022-12-18T09:39:19;51.53;;;25.35;;
17595;SDS011;8916;47.086;15.920;2022-12-18T09:41:51;59.20;;;28.42;;
17595;SDS011;8916;47.086;15.920;2022-12-18T09:44:24;56.63;;;28.23;;
17595;SDS011;8916;47.086;15.920;2022-12-18T09:47:02;60.53;;;29.75;;
17595;SDS011;8916;47.086;15.920;2022-12-18T09:49:38;65.88;;;31.08;;
17595;SDS011;8916;47.086;15.920;2022-12-18T09:52:15;70.88;;;32.90;;
17595;SDS011;8916;47.086;15.920;2022-12-18T09:54:53;77.20;;;35.05;;
17595;SDS011;8916;47.086;15.920;2022-12-18T09:57:29;75.00;;;35.45;;
17595;SDS011;8916;47.086;15.920;2022-12-18T10:00:03;78.75;;;36.78;;
17595;SDS011;8916;47.086;15.920;2022-12-18T10:02:42;83.70;;;37.88;;
17595;SDS011;8916;47.086;15.920;2022-12-18T10:05:11;80.03;;;37.53;;
17595;SDS011;8916;47.086;15.920;2022-12-18T10:07:48;77.75;;;38.30;;
17595;SDS011;8916;47.086;15.920;2022-12-18T10:10:29;85.53;;;39.17;;
17595;SDS011;8916;47.086;15.920;2022-12-18T10:13:09;89.72;;;39.22;;
17595;SDS011;8916;47.086;15.920;2022-12-18T10:15:52;93.93;;;42.40;;
17595;SDS011;8916;47.086;15.920;2022-12-18T10:18:36;106.53;;;44.30;;
17595;SDS011;8916;47.086;15.920;2022-12-18T10:21:45;89.03;;;40.83;;
17595;SDS011;8916;47.086;15.920;2022-12-18T10:24:28;95.57;;;43.33;;
17595;SDS011;8916;47.086;15.920;2022-12-18T10:27:09;93.40;;;42.95;;
17595;SDS011;8916;47.086;15.920;2022-12-18T10:29:43;90.53;;;41.38;;
17595;SDS011;8916;47.086;15.920;2022-12-18T10:32:14;88.70;;;39.30;;
17595;SDS011;8916;47.086;15.920;2022-12-18T10:34:45;86.47;;;38.95;;
17595;SDS011;8916;47.086;15.920;2022-12-18T10:37:16;92.70;;;40.38;;
17595;SDS011;8916;47.086;15.920;2022-12-18T10:39:47;87.70;;;39.20;;
17595;SDS011;8916;47.086;15.920;2022-12-18T10:42:45;88.15;;;38.70;;
17595;SDS011;8916;47.086;15.920;2022-12-18T10:45:16;89.43;;;40.33;;
17595;SDS011;8916;47.086;15.920;2022-12-18T10:47:46;79.50;;;38.70;;
17595;SDS011;8916;47.086;15.920;2022-12-18T10:50:23;90.32;;;39.10;;
17595;SDS011;8916;47.086;15.920;2022-12-18T10:53:18;91.15;;;39.80;;
17595;SDS011;8916;47.086;15.920;2022-12-18T10:55:51;88.22;;;39.22;;
17595;SDS011;8916;47.086;15.920;2022-12-18T10:58:27;84.80;;;38.53;;
17595;SDS011;8916;47.086;15.920;2022-12-18T11:01:03;78.95;;;38.50;;
17595;SDS011;8916;47.086;15.920;2022-12-18T11:03:37;83.03;;;35.15;;
17595;SDS011;8916;47.086;15.920;2022-12-18T11:06:09;75.85;;;35.25;;
17595;SDS011;8916;47.086;15.920;2022-12-18T11:08:40;82.80;;;38.55;;
17595;SDS011;8916;47.086;15.920;2022-12-18T11:11:15;83.50;;;39.05;;
17595;SDS011;8916;47.086;15.920;2022-12-18T11:13:54;76.97;;;35.17;;
17595;SDS011;8916;47.086;15.920;2022-12-18T11:16:33;76.53;;;35.78;;
17595;SDS011;8916;47.086;15.920;2022-12-18T11:19:32;79.75;;;35.60;;
17595;SDS011;8916;47.086;15.920;2022-12-18T11:22:16;78.25;;;34.88;;
17595;SDS011;8916;47.086;15.920;2022-12-18T11:24:52;75.35;;;36.33;;
17595;SDS011;8916;47.086;15.920;2022-12-18T11:27:49;78.05;;;35.75;;
17595;SDS011;8916;47.086;15.920;2022-12-18T11:30:23;77.03;;;35.08;;
17595;SDS011;8916;47.086;15.920;2022-12-18T11:32:58;70.82;;;34.22;;
17595;SDS011;8916;47.086;15.920;2022-12-18T11:35:35;70.95;;;34.45;;
17595;SDS011;8916;47.086;15.920;2022-12-18T11:38:12;73.93;;;35.45;;
17595;SDS011;8916;47.086;15.920;2022-12-18T11:40:53;79.30;;;36.53;;
17595;SDS011;8916;47.086;15.920;2022-12-18T11:43:29;80.68;;;36.78;;
17595;SDS011;8916;47.086;15.920;2022-12-18T11:46:07;76.38;;;35.15;;
17595;SDS011;8916;47.086;15.920;2022-12-18T11:48:48;80.35;;;35.80;;
17595;SDS011;8916;47.086;15.920;2022-12-18T11:51:27;76.13;;;35.83;;
17595;SDS011;8916;47.086;15.920;2022-12-18T11:54:04;75.50;;;36.38;;
17595;SDS011;8916;47.086;15.920;2022-12-18T11:56:43;71.78;;;34.75;;
17595;SDS011;8916;47.086;15.920;2022-12-18T11:59:18;70.93;;;35.42;;
17595;SDS011;8916;47.086;15.920;2022-12-18T12:02:01;77.85;;;34.05;;
17595;SDS011;8916;47.086;15.920;2022-12-18T12:04:56;73.93;;;35.42;;
17595;SDS011;8916;47.086;15.920;2022-12-18T12:07:43;77.43;;;36.63;;
17595;SDS011;8916;47.086;15.920;2022-12-18T12:10:24;78.35;;;36.60;;
17595;SDS011;8916;47.086;15.920;2022-12-18T12:13:14;83.30;;;37.50;;
17595;SDS011;8916;47.086;15.920;2022-12-18T12:15:57;74.30;;;34.42;;
17595;SDS011;8916;47.086;15.920;2022-12-18T12:18:43;73.00;;;35.78;;
17595;SDS011;8916;47.086;15.920;2022-12-18T12:21:33;78.07;;;36.78;;
17595;SDS011;8916;47.086;15.920;2022-12-18T12:24:16;81.88;;;36.60;;
17595;SDS011;8916;47.086;15.920;2022-12-18T12:27:01;85.75;;;35.00;;
17595;SDS011;8916;47.086;15.920;2022-12-18T12:29:47;78.85;;;33.67;;
17595;SDS011;8916;47.086;15.920;2022-12-18T12:32:31;78.38;;;35.15;;
17595;SDS011;8916;47.086;15.920;2022-12-18T12:35:31;84.97;;;37.10;;
17595;SDS011;8916;47.086;15.920;2022-12-18T12:38:14;77.53;;;36.55;;
17595;SDS011;8916;47.086;15.920;2022-12-18T12:40:49;81.35;;;37.88;;
17595;SDS011;8916;47.086;15.920;2022-12-18T12:43:33;80.68;;;37.65;;
17595;SDS011;8916;47.086;15.920;2022-12-18T12:46:17;71.97;;;35.47;;
17595;SDS011;8916;47.086;15.920;2022-12-18T12:48:52;80.55;;;36.70;;
17595;SDS011;8916;47.086;15.920;2022-12-18T12:51:28;77.30;;;37.03;;
17595;SDS011;8916;47.086;15.920;2022-12-18T12:54:05;73.65;;;34.38;;
17595;SDS011;8916;47.086;15.920;2022-12-18T12:56:45;75.47;;;34.97;;
17595;SDS011;8916;47.086;15.920;2022-12-18T12:59:25;77.80;;;36.03;;
17595;SDS011;8916;47.086;15.920;2022-12-18T13:02:04;73.65;;;37.08;;
17595;SDS011;8916;47.086;15.920;2022-12-18T13:04:52;83.32;;;38.17;;
17595;SDS011;8916;47.086;15.920;2022-12-18T13:07:29;78.28;;;36.38;;
17595;SDS011;8916;47.086;15.920;2022-12-18T13:10:23;80.85;;;36.55;;
17595;SDS011;8916;47.086;15.920;2022-12-18T13:13:00;80.68;;;37.95;;
17595;SDS011;8916;47.086;15.920;2022-12-18T13:15:37;86.25;;;39.97;;
17595;SDS011;8916;47.086;15.920;2022-12-18T13:18:32;96.20;;;43.25;;
17595;SDS011;8916;47.086;15.920;2022-12-18T13:21:03;93.05;;;40.97;;
17595;SDS011;8916;47.086;15.920;2022-12-18T13:23:49;90.70;;;39.35;;
17595;SDS011;8916;47.086;15.920;2022-12-18T13:26:31;85.45;;;38.83;;
17595;SDS011;8916;47.086;15.920;2022-12-18T13:29:03;84.97;;;38.78;;
17595;SDS011;8916;47.086;15.920;2022-12-18T13:38:19;82.07;;;39.33;;
17595;SDS011;8916;47.086;15.920;2022-12-18T13:40:56;79.68;;;38.13;;
17595;SDS011;8916;47.086;15.920;2022-12-18T13:43:30;90.78;;;42.22;;
17595;SDS011;8916;47.086;15.920;2022-12-18T13:46:05;90.45;;;40.83;;
17595;SDS011;8916;47.086;15.920;2022-12-18T13:48:50;82.18;;;39.45;;
17595;SDS011;8916;47.086;15.920;2022-12-18T13:51:26;81.43;;;39.35;;
17595;SDS011;8916;47.086;15.920;2022-12-18T13:53:57;76.78;;;37.78;;
17595;SDS011;8916;47.086;15.920;2022-12-18T13:56:32;85.78;;;41.00;;
17595;SDS011;8916;47.086;15.920;2022-12-18T13:59:13;86.82;;;40.03;;
17595;SDS011;8916;47.086;15.920;2022-12-18T14:01:52;86.68;;;40.65;;
17595;SDS011;8916;47.086;15.920;2022-12-18T14:04:27;84.20;;;42.10;;
17595;SDS011;8916;47.086;15.920;2022-12-18T14:07:01;85.82;;;40.25;;
17595;SDS011;8916;47.086;15.920;2022-12-18T14:09:35;84.00;;;39.78;;
17595;SDS011;8916;47.086;15.920;2022-12-18T14:12:16;88.68;;;40.63;;
17595;SDS011;8916;47.086;15.920;2022-12-18T14:15:10;82.67;;;38.53;;
17595;SDS011;8916;47.086;15.920;2022-12-18T14:17:52;79.80;;;40.65;;
17595;SDS011;8916;47.086;15.920;2022-12-18T14:20:25;76.10;;;39.30;;
17595;SDS011;8916;47.086;15.920;2022-12-18T14:22:58;80.78;;;40.28;;
17595;SDS011;8916;47.086;15.920;2022-12-18T14:25:29;88.80;;;42.92;;
17595;SDS011;8916;47.086;15.920;2022-12-18T14:28:07;93.25;;;45.83;;
17595;SDS011;8916;47.086;15.920;2022-12-18T14:30:45;90.82;;;44.72;;
17595;SDS011;8916;47.086;15.920;2022-12-18T14:33:16;90.28;;;44.88;;
17595;SDS011;8916;47.086;15.920;2022-12-18T14:35:57;87.72;;;42.50;;
17595;SDS011;8916;47.086;15.920;2022-12-18T14:38:30;80.40;;;40.58;;
17595;SDS011;8916;47.086;15.920;2022-12-18T14:41:02;95.85;;;45.22;;
17595;SDS011;8916;47.086;15.920;2022-12-18T14:43:35;89.32;;;44.33;;
17595;SDS011;8916;47.086;15.920;2022-12-18T14:46:24;99.72;;;46.40;;
17595;SDS011;8916;47.086;15.920;2022-12-18T14:48:58;99.05;;;48.25;;
17595;SDS011;8916;47.086;15.920;2022-12-18T14:51:29;101.85;;;48.22;;
17595;SDS011;8916;47.086;15.920;2022-12-18T14:54:03;99.47;;;47.33;;
17595;SDS011;8916;47.086;15.920;2022-12-18T14:56:43;96.22;;;45.72;;
17595;SDS011;8916;47.086;15.920;2022-12-18T14:59:16;88.13;;;43.15;;
17595;SDS011;8916;47.086;15.920;2022-12-18T15:01:55;92.72;;;46.50;;
17595;SDS011;8916;47.086;15.920;2022-12-18T15:04:32;95.10;;;44.97;;
17595;SDS011;8916;47.086;15.920;2022-12-18T15:07:04;76.05;;;40.53;;
17595;SDS011;8916;47.086;15.920;2022-12-18T15:09:40;85.60;;;41.47;;
17595;SDS011;8916;47.086;15.920;2022-12-18T15:12:32;88.03;;;43.30;;